ENAN/ANX METAR and TAF weather

Enter ICAO airport designator
Station Type Date Time Source
ENAN METAR 2020/01/22 17:50 UTC NOAA

ENAN 221750Z 31016KT 9999 VCSH FEW036 BKN049 01/M04 Q1013


Station Type Date Time Source
ENAN Decoded METAR 2020/01/22 17:50 UTC NOAA

Andoya, Norway (ENAN) 69-18N 016-09E 14M
Jan 22, 2020 - 12:50 PM EST / 2020.01.22 1750 UTC
Wind: from the NW (310 degrees) at 18 MPH (16 KT):0
Visibility: greater than 7 mile(s):0
Sky conditions: mostly cloudy
Weather: showers in the vicinity
Temperature: 33 F (1 C)
Windchill: 21 F (-6 C):1
Dew Point: 24 F (-4 C)
Relative Humidity: 69%
Pressure (altimeter): 29.91 in. Hg (1013 hPa)
ob: ENAN 221750Z 31016KT 9999 VCSH FEW036 BKN049 01/M04 Q1013
cycle: 18

Station Type Date Time Source
ENAN TAF 2020/01/22 18:58 UTC NOAA

TAF ENAN 221700Z 2218/2318 32014KT 9999 FEW015CB BKN030
TEMPO 2218/2221 1200 SHSNRA VV008
BECMG 2220/2223 18008KT FEW010 BKN035
BECMG 2302/2305 16022KT BKN014
TEMPO 2305/2312 0800 SN VV006
BECMG 2312/2314 24015KT FEW015CB BKN025
TEMPO 2314/2318 26020G30KT 1200 SHSNRA VV008

Example: see airport list